Time;durP1;ratioP1;P1;durP2;ratioP2;P2;SDS_P1;SDS_P2;PMS_P1;PMS_P2;Temp;Humidity;BMP_temperature;BMP_pressure;BME280_temperature;BME280_humidity;BME280_pressure;Samples;Min_cycle;Max_cycle;Signal;HPM_P1;HPM_P2
2022/02/15 00:01:01;;;;;;;7.88;1.48;;;;;;;4.84;95.41;100711.78;5053991;28;20087;-72
2022/02/15 00:03:26;;;;;;;10.15;1.67;;;;;;;4.90;95.27;100722.75;5053279;28;20033;-73
2022/02/15 00:05:52;;;;;;;9.82;1.67;;;;;;;4.96;95.01;100716.22;5053745;28;20043;-72
2022/02/15 00:08:17;;;;;;;12.98;1.92;;;;;;;4.98;95.05;100726.66;5053902;28;20482;-77
2022/02/15 00:10:45;;;;;;;9.05;2.13;;;;;;;4.99;95.05;100725.72;5053436;28;20037;-73
2022/02/15 00:13:10;;;;;;;11.60;2.33;;;;;;;4.97;94.96;100730.22;5052554;28;20537;-73
2022/02/15 00:15:36;;;;;;;10.93;2.05;;;;;;;4.92;94.68;100722.63;5053191;28;20116;-73
2022/02/15 00:18:01;;;;;;;9.13;1.63;;;;;;;4.88;95.00;100737.84;5053624;28;20107;-73
2022/02/15 00:20:27;;;;;;;6.28;1.77;;;;;;;4.84;95.07;100736.34;5052810;28;20033;-73
2022/02/15 00:22:52;;;;;;;11.40;2.15;;;;;;;4.80;95.53;100729.59;5052348;28;20043;-73
2022/02/15 00:25:20;;;;;;;7.03;1.70;;;;;;;4.76;95.44;100733.38;5052573;28;20025;-73
2022/02/15 00:27:46;;;;;;;9.98;1.88;;;;;;;4.73;95.54;100739.72;5053261;28;20091;-73
2022/02/15 00:30:11;;;;;;;6.80;1.90;;;;;;;4.68;95.88;100735.69;5052294;28;20112;-73
2022/02/15 00:32:37;;;;;;;9.32;2.15;;;;;;;4.66;95.86;100735.81;5034916;28;20110;-74
2022/02/15 00:35:03;;;;;;;8.65;2.05;;;;;;;4.61;96.08;100732.63;5053169;28;20040;-74
2022/02/15 00:37:28;;;;;;;9.10;2.20;;;;;;;4.51;96.28;100732.41;5051499;28;20033;-74
2022/02/15 00:39:53;;;;;;;9.13;2.50;;;;;;;4.45;96.38;100734.59;5053317;28;20049;-74
2022/02/15 00:42:19;;;;;;;11.85;2.58;;;;;;;4.40;97.18;100741.03;5053108;28;20385;-73
2022/02/15 00:44:44;;;;;;;13.75;2.80;;;;;;;4.37;97.41;100743.88;5052606;28;20139;-73
2022/02/15 00:47:09;;;;;;;18.15;3.58;;;;;;;4.34;98.15;100746.69;5053107;28;20037;-73
2022/02/15 00:49:35;;;;;;;10.98;2.65;;;;;;;4.31;98.13;100746.88;5052509;28;20029;-74
2022/02/15 00:52:01;;;;;;;9.23;2.45;;;;;;;4.29;97.93;100753.22;5053016;28;20532;-73
2022/02/15 00:54:26;;;;;;;10.00;2.30;;;;;;;4.29;98.50;100753.22;5051097;28;20025;-74
2022/02/15 00:56:52;;;;;;;8.32;2.30;;;;;;;4.36;98.65;100754.47;5053070;28;20112;-73
2022/02/15 00:59:17;;;;;;;12.77;2.50;;;;;;;4.36;98.89;100763.25;5053013;28;20060;-74
2022/02/15 01:01:42;;;;;;;10.82;2.60;;;;;;;4.34;99.03;100765.13;5052341;28;20061;-74
2022/02/15 01:04:08;;;;;;;12.25;2.70;;;;;;;4.36;99.07;100757.97;5051779;28;20053;-73
2022/02/15 01:06:33;;;;;;;9.35;2.55;;;;;;;4.36;99.03;100755.34;5050731;28;20086;-73
2022/02/15 01:08:59;;;;;;;14.75;2.60;;;;;;;4.37;99.33;100753.56;5053062;28;20040;-72
2022/02/15 01:11:24;;;;;;;8.30;2.65;;;;;;;4.35;99.40;100761.56;5052984;28;20125;-73
2022/02/15 01:13:50;;;;;;;13.13;3.13;;;;;;;4.30;99.13;100770.69;5052079;28;20025;-74
2022/02/15 01:16:15;;;;;;;10.05;2.63;;;;;;;4.28;99.62;100773.44;5052517;28;20131;-74
2022/02/15 01:18:41;;;;;;;10.70;2.72;;;;;;;4.36;100.00;100772.94;5050529;28;20029;-74
2022/02/15 01:21:06;;;;;;;14.57;3.15;;;;;;;4.45;100.00;100776.75;5052389;28;20430;-74
2022/02/15 01:23:32;;;;;;;14.82;3.05;;;;;;;4.55;100.00;100778.69;5051955;28;20101;-73
2022/02/15 01:25:58;;;;;;;11.43;3.03;;;;;;;4.68;100.00;100777.88;5052082;28;20388;-73
2022/02/15 01:28:23;;;;;;;16.80;2.88;;;;;;;4.73;100.00;100784.53;5051144;28;20029;-72
2022/02/15 01:30:48;;;;;;;10.35;3.22;;;;;;;4.81;100.00;100778.75;5050399;28;20221;-72
2022/02/15 01:33:14;;;;;;;16.05;2.92;;;;;;;4.84;100.00;100786.44;5050900;28;20040;-73
2022/02/15 01:35:40;;;;;;;13.07;3.30;;;;;;;4.91;100.00;100778.94;5051289;28;20028;-73
2022/02/15 01:38:05;;;;;;;11.90;3.17;;;;;;;5.01;100.00;100787.94;5051130;28;20493;-73
2022/02/15 01:40:31;;;;;;;16.27;3.35;;;;;;;5.08;99.91;100788.38;5051728;28;20474;-77
2022/02/15 01:42:57;;;;;;;14.73;3.50;;;;;;;5.12;99.21;100790.69;5052510;28;20025;-73
2022/02/15 01:45:23;;;;;;;20.02;4.30;;;;;;;5.13;99.11;100794.16;5050767;28;20052;-72
2022/02/15 01:47:49;;;;;;;20.20;3.80;;;;;;;5.15;98.73;100787.00;5051557;28;20429;-73
2022/02/15 01:50:16;;;;;;;10.80;3.38;;;;;;;5.11;98.49;100793.44;5051941;28;20072;-74
2022/02/15 01:52:41;;;;;;;9.73;3.28;;;;;;;5.12;98.03;100793.31;5051473;28;20029;-73
2022/02/15 01:55:10;;;;;;;13.38;3.42;;;;;;;5.14;97.67;100790.59;5051917;28;20198;-73
2022/02/15 01:57:36;;;;;;;15.70;3.80;;;;;;;5.17;97.68;100787.72;5049980;28;20461;-73
2022/02/15 02:00:12;;;;;;;17.98;3.67;;;;;;;5.14;97.40;100785.31;5050505;28;20484;-73
2022/02/15 02:02:38;;;;;;;15.00;3.22;;;;;;;5.05;97.16;100788.59;5049995;28;20433;-74
2022/02/15 02:07:48;;;;;;;19.35;3.92;;;;;;;4.99;97.62;100796.91;5051490;28;20500;-73
2022/02/15 02:10:14;;;;;;;19.73;3.83;;;;;;;4.99;97.77;100795.13;5050452;28;20029;-72
2022/02/15 02:12:40;;;;;;;20.52;3.72;;;;;;;4.98;97.72;100800.50;5051063;28;20033;-72
2022/02/15 02:15:14;;;;;;;13.70;3.83;;;;;;;5.00;97.94;100798.59;5051755;28;20040;-73
2022/02/15 02:17:39;;;;;;;11.25;3.75;;;;;;;4.97;97.78;100794.38;5050951;28;20025;-73
2022/02/15 02:20:05;;;;;;;11.38;3.65;;;;;;;5.01;97.92;100800.28;5051785;28;20036;-73
2022/02/15 02:22:31;;;;;;;16.77;3.47;;;;;;;5.04;98.17;100790.34;5051615;28;20021;-72
2022/02/15 02:24:58;;;;;;;16.33;4.25;;;;;;;5.03;97.64;100798.38;5051220;28;20045;-73
2022/02/15 02:27:26;;;;;;;15.35;3.55;;;;;;;5.02;97.90;100786.16;5051497;28;20033;-74
2022/02/15 02:29:54;;;;;;;20.17;3.97;;;;;;;5.06;97.80;100798.16;5050834;28;20565;-73
2022/02/15 02:32:27;;;;;;;15.32;3.35;;;;;;;5.05;97.66;100799.13;5051388;28;20048;-72
2022/02/15 02:34:54;;;;;;;18.25;3.60;;;;;;;5.08;97.65;100806.84;5050968;28;20025;-72
2022/02/15 02:37:20;;;;;;;13.60;3.28;;;;;;;5.10;97.64;100802.28;5053319;28;20040;-73
2022/02/15 02:39:48;;;;;;;12.15;3.70;;;;;;;5.04;97.29;100803.53;5055145;28;20049;-73
2022/02/15 02:42:17;;;;;;;15.45;4.15;;;;;;;4.98;97.11;100803.13;5055526;28;20025;-74
2022/02/15 02:44:43;;;;;;;15.50;3.42;;;;;;;4.95;97.48;100805.00;5054685;28;20489;-74
2022/02/15 02:47:08;;;;;;;13.85;3.50;;;;;;;4.97;97.67;100812.84;5055373;28;20025;-73
2022/02/15 02:49:34;;;;;;;18.92;3.80;;;;;;;5.01;97.96;100813.47;5054220;28;20040;-73
2022/02/15 02:52:00;;;;;;;16.63;3.75;;;;;;;5.03;98.21;100819.47;5054717;28;20041;-73
2022/02/15 02:54:26;;;;;;;16.38;3.50;;;;;;;5.07;98.03;100813.88;5055165;28;20047;-74
2022/02/15 02:56:52;;;;;;;14.82;4.45;;;;;;;5.09;97.98;100825.19;5054561;28;20459;-72
2022/02/15 02:59:18;;;;;;;15.00;3.67;;;;;;;5.10;97.94;100821.59;5055248;28;20120;-73
2022/02/15 03:01:43;;;;;;;13.88;3.10;;;;;;;5.12;97.74;100821.50;5053085;28;20112;-74
2022/02/15 03:04:09;;;;;;;13.93;3.88;;;;;;;5.13;97.72;100825.81;5055116;28;20067;-72
2022/02/15 03:06:34;;;;;;;13.95;3.78;;;;;;;5.12;97.78;100827.63;5055140;28;20086;-73
2022/02/15 03:09:00;;;;;;;14.43;4.40;;;;;;;5.08;97.62;100820.84;5054494;28;20664;-73
2022/02/15 03:11:25;;;;;;;12.30;3.97;;;;;;;5.12;97.51;100826.78;5055235;28;20044;-73
2022/02/15 03:13:51;;;;;;;21.52;4.93;;;;;;;5.11;97.12;100833.84;5054246;28;20082;-73
2022/02/15 03:16:16;;;;;;;13.35;3.53;;;;;;;5.09;96.84;100837.50;5054590;28;20128;-73
2022/02/15 03:18:42;;;;;;;18.73;3.83;;;;;;;5.07;97.01;100837.63;5054834;28;20033;-77
2022/02/15 03:21:07;;;;;;;12.85;3.67;;;;;;;5.05;97.09;100841.31;5053278;28;20032;-73
2022/02/15 03:23:32;;;;;;;15.55;3.83;;;;;;;5.07;96.66;100845.53;5054916;28;20033;-73
2022/02/15 03:25:58;;;;;;;15.55;3.72;;;;;;;5.11;97.07;100851.47;5054462;28;20032;-73
2022/02/15 03:28:23;;;;;;;14.15;3.53;;;;;;;5.15;96.95;100852.94;5054535;28;20032;-74
2022/02/15 03:30:49;;;;;;;14.75;4.10;;;;;;;5.20;96.64;100860.56;5052787;28;20374;-73
2022/02/15 03:33:14;;;;;;;11.00;3.50;;;;;;;5.20;96.29;100864.03;5054504;28;20121;-73
2022/02/15 03:35:39;;;;;;;17.02;3.97;;;;;;;5.23;96.19;100873.53;5054840;28;20086;-73
2022/02/15 03:38:05;;;;;;;17.25;3.50;;;;;;;5.26;96.17;100878.59;5054057;28;20079;-73
2022/02/15 03:43:14;;;;;;;14.10;3.55;;;;;;;5.28;95.98;100881.97;5054698;28;20106;-72
2022/02/15 03:45:40;;;;;;;18.58;3.47;;;;;;;5.29;95.88;100887.13;5054503;28;20432;-75
2022/02/15 03:48:06;;;;;;;15.90;3.13;;;;;;;5.27;95.86;100885.56;5053538;28;20348;-74
2022/02/15 03:50:31;;;;;;;12.10;2.80;;;;;;;5.28;95.98;100892.53;5054368;28;20033;-74
2022/02/15 03:52:57;;;;;;;13.73;3.20;;;;;;;5.27;96.06;100896.13;5053739;28;20552;-74
2022/02/15 03:55:22;;;;;;;11.90;2.67;;;;;;;5.28;95.92;100901.28;5054026;28;20033;-73
2022/02/15 03:57:48;;;;;;;16.73;2.80;;;;;;;5.32;95.89;100895.81;5053350;28;20107;-77
2022/02/15 04:00:14;;;;;;;15.88;3.05;;;;;;;5.33;95.61;100892.19;5054020;28;20111;-72
2022/02/15 04:02:40;;;;;;;18.70;3.28;;;;;;;5.29;95.46;100908.25;5054062;28;20024;-73
2022/02/15 04:05:06;;;;;;;15.25;3.03;;;;;;;5.32;95.55;100903.72;5053449;28;20033;-73
2022/02/15 04:07:31;;;;;;;17.42;3.22;;;;;;;5.33;95.52;100914.19;5054069;28;20112;-73
2022/02/15 04:09:57;;;;;;;10.50;2.60;;;;;;;5.34;95.31;100910.56;5051890;28;20179;-73
2022/02/15 04:12:22;;;;;;;13.40;3.00;;;;;;;5.33;95.35;100905.41;5054133;28;20155;-74
2022/02/15 04:14:48;;;;;;;23.88;3.60;;;;;;;5.30;95.09;100917.03;5053655;28;20048;-75
2022/02/15 04:17:14;;;;;;;12.52;2.42;;;;;;;5.28;95.09;100922.41;5053743;28;20568;-72
2022/02/15 04:19:40;;;;;;;14.45;2.90;;;;;;;5.28;95.07;100918.91;5053789;28;20033;-73
2022/02/15 04:22:06;;;;;;;14.30;2.83;;;;;;;5.27;95.00;100931.25;5053027;28;20039;-72
2022/02/15 04:24:31;;;;;;;20.52;3.33;;;;;;;5.23;95.03;100928.94;5053737;28;20033;-73
2022/02/15 04:26:57;;;;;;;12.18;2.70;;;;;;;5.23;95.00;100928.94;5034957;28;20412;-73
2022/02/15 04:29:22;;;;;;;20.52;3.42;;;;;;;5.20;94.91;100937.88;5052352;28;20047;-72
2022/02/15 04:31:48;;;;;;;14.38;3.58;;;;;;;5.18;94.70;100937.16;5053760;28;20045;-74
2022/02/15 04:34:13;;;;;;;17.33;2.85;;;;;;;5.20;94.24;100935.25;5051600;28;20107;-73
2022/02/15 04:36:38;;;;;;;17.15;2.80;;;;;;;5.23;93.19;100936.84;5053459;28;20029;-74
2022/02/15 04:39:04;;;;;;;11.40;2.13;;;;;;;5.23;92.73;100942.97;5051514;28;20116;-74
2022/02/15 04:41:29;;;;;;;24.15;2.63;;;;;;;5.18;92.74;100942.44;5053078;28;20186;-75
2022/02/15 04:43:54;;;;;;;13.82;2.90;;;;;;;5.14;92.65;100950.66;5052449;28;20037;-74
2022/02/15 04:46:20;;;;;;;14.68;2.65;;;;;;;5.13;93.50;100960.34;5051995;28;20036;-73
2022/02/15 04:48:45;;;;;;;12.25;2.03;;;;;;;5.12;93.47;100954.22;5053609;28;20040;-73
2022/02/15 04:51:11;;;;;;;13.10;2.42;;;;;;;5.16;93.64;100968.03;5052470;28;20037;-73
2022/02/15 04:53:36;;;;;;;18.67;2.35;;;;;;;5.19;93.64;100974.91;5051704;28;20037;-73
2022/02/15 04:56:02;;;;;;;15.13;2.95;;;;;;;5.20;93.64;100968.72;5052379;28;20033;-73
2022/02/15 04:58:30;;;;;;;13.55;2.35;;;;;;;5.25;92.48;100971.88;5051679;28;20128;-73
2022/02/15 05:00:55;;;;;;;11.05;2.22;;;;;;;5.28;92.05;100980.44;5051808;28;20029;-76
2022/02/15 05:03:21;;;;;;;9.48;2.45;;;;;;;5.27;91.79;100980.56;5052864;28;20492;-73
2022/02/15 05:05:46;;;;;;;14.82;2.05;;;;;;;5.28;91.57;100977.81;5053199;28;20086;-72
2022/02/15 05:08:11;;;;;;;10.93;2.28;;;;;;;5.29;91.28;100983.94;5052288;28;20068;-72
2022/02/15 05:10:38;;;;;;;12.95;2.28;;;;;;;5.32;91.15;100983.72;5052674;28;20485;-73
2022/02/15 05:13:08;;;;;;;9.68;1.75;;;;;;;5.34;91.35;100988.91;5051869;28;20040;-73
2022/02/15 05:15:33;;;;;;;20.20;2.63;;;;;;;5.36;90.95;100989.63;5052842;28;20389;-73
2022/02/15 05:17:59;;;;;;;9.90;2.08;;;;;;;5.35;90.33;100988.78;5052130;28;20025;-74
2022/02/15 05:20:24;;;;;;;15.48;2.95;;;;;;;5.34;90.77;100986.25;5052805;28;20032;-73
2022/02/15 05:22:51;;;;;;;16.33;2.42;;;;;;;5.34;90.89;100996.81;5051336;28;20388;-72
2022/02/15 05:25:17;;;;;;;9.52;2.35;;;;;;;5.32;91.09;101001.34;5052121;28;20039;-73
2022/02/15 05:27:42;;;;;;;21.52;2.90;;;;;;;5.33;90.97;100995.09;5052176;28;20028;-73
2022/02/15 05:30:08;;;;;;;12.18;2.95;;;;;;;5.32;91.30;101007.47;5051880;28;20485;-73
2022/02/15 05:32:34;;;;;;;20.60;2.88;;;;;;;5.30;91.18;100996.19;5052205;28;20047;-73
2022/02/15 05:34:59;;;;;;;23.42;2.92;;;;;;;5.26;91.61;100998.16;5051978;28;20029;-75
2022/02/15 05:37:25;;;;;;;20.67;3.13;;;;;;;5.28;91.29;101005.97;5050776;28;20474;-74
2022/02/15 05:39:50;;;;;;;21.35;4.03;;;;;;;5.29;91.20;101005.88;5052098;28;20060;-74
2022/02/15 05:42:15;;;;;;;13.73;2.70;;;;;;;5.34;90.42;101002.09;5051440;28;20462;-74
2022/02/15 05:44:41;;;;;;;15.18;3.63;;;;;;;5.34;90.17;101007.38;5052320;28;20032;-73
2022/02/15 05:47:06;;;;;;;22.70;2.92;;;;;;;5.34;90.17;101002.09;5051316;28;20124;-74
2022/02/15 05:50:49;;;;;;;11.07;2.30;;;;;;;5.31;90.22;101005.75;5051904;28;20373;-74
2022/02/15 05:52:17;;;;;;;13.45;2.67;;;;;;;5.27;90.12;101006.94;5051027;28;20048;-74
2022/02/15 05:54:42;;;;;;;12.95;2.85;;;;;;;5.28;89.79;101012.13;5050471;28;20033;-73
2022/02/15 05:57:08;;;;;;;11.25;2.60;;;;;;;5.29;89.29;101012.94;5051071;28;20422;-73
2022/02/15 05:59:33;;;;;;;14.25;2.97;;;;;;;5.26;89.54;101010.50;5051572;28;20040;-73
2022/02/15 06:01:59;;;;;;;16.58;3.45;;;;;;;5.23;89.66;101008.91;5051413;28;20449;-74
2022/02/15 06:04:24;;;;;;;13.90;3.33;;;;;;;5.24;89.72;101020.28;5050718;28;20037;-73
2022/02/15 06:06:49;;;;;;;11.63;3.03;;;;;;;5.23;90.07;101016.81;5051193;28;20032;-74
2022/02/15 06:09:15;;;;;;;17.35;3.28;;;;;;;5.21;90.29;101016.09;5050642;28;20040;-75
2022/02/15 06:11:40;;;;;;;20.33;3.10;;;;;;;5.21;90.99;101017.88;5048867;28;20146;-76
2022/02/15 06:14:06;;;;;;;18.27;2.75;;;;;;;5.21;90.92;101025.78;5050401;28;20108;-76
2022/02/15 06:16:31;;;;;;;27.27;3.22;;;;;;;5.16;91.08;101020.81;5051267;28;20040;-73
2022/02/15 06:18:56;;;;;;;17.20;3.03;;;;;;;5.10;90.95;101019.41;5051208;28;20186;-73
2022/02/15 06:21:25;;;;;;;25.65;3.47;;;;;;;5.01;91.16;101024.44;5050380;28;20044;-74
2022/02/15 06:23:51;;;;;;;10.93;2.78;;;;;;;4.88;91.01;101022.59;5046855;28;20477;-75
2022/02/15 06:26:17;;;;;;;20.38;3.28;;;;;;;4.72;91.24;101017.44;5047791;28;20123;-74
2022/02/15 06:28:42;;;;;;;17.52;3.00;;;;;;;4.59;91.99;101027.06;5048577;28;20460;-73
2022/02/15 06:31:09;;;;;;;19.15;3.45;;;;;;;4.52;92.76;101021.34;5047578;28;20037;-74
2022/02/15 06:33:35;;;;;;;16.20;3.20;;;;;;;4.51;92.95;101026.69;5048262;28;20044;-75
2022/02/15 06:36:02;;;;;;;15.75;3.40;;;;;;;4.49;92.96;101021.50;5047576;28;20349;-73
2022/02/15 06:38:27;;;;;;;24.48;3.92;;;;;;;4.43;92.56;101032.41;5045796;28;20044;-73
2022/02/15 06:40:53;;;;;;;17.15;3.55;;;;;;;4.38;92.49;101026.59;5047190;28;20057;-73
2022/02/15 06:43:18;;;;;;;17.23;3.72;;;;;;;4.41;92.85;101032.53;5047211;28;20068;-74
2022/02/15 06:45:44;;;;;;;13.82;3.38;;;;;;;4.48;92.74;101040.03;5046305;28;20090;-74
2022/02/15 06:48:10;;;;;;;15.10;2.58;;;;;;;4.54;92.67;101042.31;5046974;28;20334;-75
2022/02/15 06:50:35;;;;;;;19.20;3.17;;;;;;;4.61;92.61;101045.41;5030023;28;20029;-74
2022/02/15 06:53:01;;;;;;;12.25;2.95;;;;;;;4.65;92.06;101044.28;5046352;28;20033;-74
2022/02/15 06:55:26;;;;;;;16.27;3.60;;;;;;;4.67;92.02;101056.44;5047070;28;20055;-75
2022/02/15 06:57:51;;;;;;;21.52;3.67;;;;;;;4.69;92.12;101053.69;5046632;28;20460;-75
2022/02/15 07:00:17;;;;;;;16.30;3.45;;;;;;;4.68;92.50;101058.09;5047273;28;20432;-75
2022/02/15 07:02:42;;;;;;;17.70;2.80;;;;;;;4.69;92.58;101067.72;5046283;28;20037;-75
2022/02/15 07:05:09;;;;;;;12.00;3.05;;;;;;;4.74;92.37;101077.97;5047481;28;20124;-72
2022/02/15 07:07:34;;;;;;;17.77;3.53;;;;;;;4.78;91.92;101090.03;5047338;28;20059;-75
2022/02/15 07:09:59;;;;;;;16.98;2.92;;;;;;;4.84;91.21;101079.09;5047529;28;20113;-74
2022/02/15 07:12:25;;;;;;;16.30;2.75;;;;;;;4.88;90.84;101085.00;5046939;28;20049;-76
2022/02/15 07:14:50;;;;;;;9.93;2.22;;;;;;;4.90;91.08;101078.72;5047723;28;20128;-74
2022/02/15 07:17:15;;;;;;;21.67;2.97;;;;;;;4.94;90.84;101089.91;5047432;28;20029;-74
2022/02/15 07:19:41;;;;;;;13.55;2.72;;;;;;;4.96;90.58;101093.31;5048076;28;20033;-74
2022/02/15 07:22:07;;;;;;;12.77;2.70;;;;;;;4.96;90.83;101088.03;5047738;28;20520;-74
2022/02/15 07:24:33;;;;;;;14.52;2.92;;;;;;;4.95;90.25;101086.31;5050590;28;20033;-75
2022/02/15 07:26:59;;;;;;;17.88;4.28;;;;;;;4.92;90.42;101097.06;5051268;28;20041;-76
2022/02/15 07:29:24;;;;;;;18.13;2.92;;;;;;;4.90;90.46;101106.88;5051193;28;20049;-75
2022/02/15 07:31:50;;;;;;;19.55;3.13;;;;;;;4.94;90.05;101103.06;5051518;28;20064;-74
2022/02/15 07:34:16;;;;;;;25.65;2.83;;;;;;;4.96;89.57;101103.84;5049381;28;20060;-75
2022/02/15 07:36:41;;;;;;;12.10;2.40;;;;;;;4.99;89.27;101110.72;5049382;28;20112;-74
2022/02/15 07:39:06;;;;;;;13.52;2.38;;;;;;;5.03;89.07;101106.94;5051175;28;20117;-74
2022/02/15 07:41:32;;;;;;;14.30;2.40;;;;;;;5.06;88.68;101107.59;5050303;28;20230;-76
2022/02/15 07:43:58;;;;;;;19.83;2.88;;;;;;;5.03;88.87;101115.72;5051372;28;20045;-75
2022/02/15 07:46:24;;;;;;;18.13;2.97;;;;;;;5.02;89.07;101110.53;5050677;28;20069;-76
2022/02/15 07:48:49;;;;;;;24.17;3.45;;;;;;;5.02;89.23;101119.28;5051413;28;20082;-76
2022/02/15 07:51:18;;;;;;;16.45;2.80;;;;;;;5.02;89.08;101129.84;5050650;28;20425;-76
2022/02/15 07:53:44;;;;;;;18.50;2.75;;;;;;;5.05;88.49;101118.25;5050756;28;20033;-74
2022/02/15 07:56:10;;;;;;;19.73;3.50;;;;;;;5.10;87.67;101122.28;5049707;28;20337;-75
2022/02/15 07:58:36;;;;;;;11.68;2.65;;;;;;;5.11;87.07;101123.97;5048822;28;20029;-75
2022/02/15 08:01:03;;;;;;;15.18;2.85;;;;;;;5.08;87.26;101124.16;5051001;28;20036;-75
2022/02/15 08:03:28;;;;;;;8.20;2.17;;;;;;;5.06;87.04;101125.19;5050117;28;20144;-72
2022/02/15 08:05:54;;;;;;;14.40;2.95;;;;;;;5.01;86.85;101124.66;5050728;28;20069;-74
2022/02/15 08:08:19;;;;;;;10.95;3.55;;;;;;;5.00;86.88;101125.59;5050291;28;20090;-74
2022/02/15 08:10:47;;;;;;;17.50;3.25;;;;;;;5.02;87.11;101135.09;5050347;28;20533;-76
2022/02/15 08:13:18;;;;;;;11.05;2.25;;;;;;;5.14;87.25;101132.66;5050956;28;20033;-75
2022/02/15 08:15:46;;;;;;;16.25;3.78;;;;;;;5.28;86.40;101148.44;5050941;28;20116;-74
2022/02/15 08:18:11;;;;;;;13.57;2.78;;;;;;;5.32;85.02;101128.84;5049031;28;20156;-74
2022/02/15 08:20:38;;;;;;;15.68;2.83;;;;;;;5.36;84.80;101127.72;5032001;28;20148;-75
2022/02/15 08:23:04;;;;;;;16.42;2.58;;;;;;;5.37;83.67;101133.81;5050238;28;20065;-75
2022/02/15 08:25:29;;;;;;;21.17;3.17;;;;;;;5.44;83.47;101135.97;5049852;28;20088;-76
2022/02/15 08:27:55;;;;;;;14.77;2.50;;;;;;;5.54;83.57;101151.19;5049222;28;20033;-75
2022/02/15 08:30:20;;;;;;;11.07;2.20;;;;;;;5.68;82.70;101145.88;5048617;28;20044;-76
2022/02/15 08:32:46;;;;;;;18.05;2.30;;;;;;;5.75;81.33;101141.06;5050355;28;20132;-75
2022/02/15 08:35:14;;;;;;;17.10;2.78;;;;;;;5.70;80.74;101140.50;5048977;28;20033;-76
2022/02/15 08:37:39;;;;;;;16.90;2.92;;;;;;;5.71;80.70;101131.66;5049819;28;20349;-76
2022/02/15 08:40:07;;;;;;;14.80;3.08;;;;;;;5.63;80.56;101133.00;5049773;28;20053;-76
2022/02/15 08:42:32;;;;;;;17.70;2.58;;;;;;;5.60;81.24;101127.91;5049442;28;20123;-75
2022/02/15 08:44:58;;;;;;;16.55;3.25;;;;;;;5.55;81.97;101139.72;5049910;28;20119;-75
2022/02/15 08:47:24;;;;;;;11.25;2.50;;;;;;;5.58;82.03;101139.50;5047629;28;20120;-74
2022/02/15 08:49:53;;;;;;;16.98;2.78;;;;;;;5.68;81.96;101130.03;5049705;28;20433;-75
2022/02/15 08:52:20;;;;;;;9.75;2.13;;;;;;;5.80;81.28;101136.31;5049642;28;20062;-74
2022/02/15 08:54:47;;;;;;;14.65;2.45;;;;;;;5.91;80.18;101133.81;5049208;28;20439;-75
2022/02/15 08:57:12;;;;;;;16.58;3.13;;;;;;;5.89;80.25;101143.63;5050167;28;20029;-75
2022/02/15 08:59:38;;;;;;;18.42;2.97;;;;;;;5.91;80.88;101141.75;5048711;28;20081;-75
2022/02/15 09:02:04;;;;;;;16.40;3.03;;;;;;;6.09;79.91;101137.06;5049477;28;20094;-76
2022/02/15 09:04:30;;;;;;;16.15;2.47;;;;;;;6.51;78.38;101150.13;5047624;28;20385;-77
2022/02/15 09:06:56;;;;;;;11.45;2.05;;;;;;;6.85;77.79;101139.84;5049745;28;20045;-76
2022/02/15 09:09:21;;;;;;;17.90;2.85;;;;;;;7.01;76.24;101140.44;5049664;28;20033;-74
2022/02/15 09:11:47;;;;;;;13.90;2.55;;;;;;;7.05;76.03;101139.28;5048804;28;20075;-75
2022/02/15 09:14:12;;;;;;;13.82;2.33;;;;;;;7.32;75.46;101122.38;5049828;28;20033;-76
2022/02/15 09:16:38;;;;;;;14.73;2.75;;;;;;;7.47;72.68;101132.81;5049239;28;20033;-75
2022/02/15 09:19:04;;;;;;;9.93;2.03;;;;;;;7.59;73.62;101140.69;5049741;28;20044;-75
2022/02/15 09:21:30;;;;;;;12.85;2.15;;;;;;;7.83;73.84;101137.19;5048789;28;20547;-76
2022/02/15 09:23:56;;;;;;;14.60;2.58;;;;;;;7.98;71.93;101137.03;5049229;28;20045;-76
2022/02/15 09:26:22;;;;;;;17.75;2.30;;;;;;;8.01;70.32;101136.81;5049504;28;20043;-77
2022/02/15 09:28:48;;;;;;;9.43;2.13;;;;;;;8.01;70.40;101136.81;5049042;28;20025;-76
2022/02/15 09:31:14;;;;;;;14.30;2.58;;;;;;;7.99;70.26;101144.88;5049252;28;20036;-75
2022/02/15 09:33:39;;;;;;;13.40;2.85;;;;;;;8.41;69.88;101142.56;5048881;28;20440;-76
2022/02/15 09:36:05;;;;;;;8.80;2.20;;;;;;;8.58;68.18;101129.84;5048493;28;20090;-74
2022/02/15 09:38:30;;;;;;;12.70;2.25;;;;;;;8.94;67.18;101133.22;5048558;28;20063;-77
2022/02/15 09:40:56;;;;;;;11.85;2.47;;;;;;;9.78;61.41;101136.22;5049235;28;20080;-74
2022/02/15 09:43:21;;;;;;;11.52;2.50;;;;;;;9.86;60.45;101132.91;5049605;28;20044;-75
2022/02/15 09:45:48;;;;;;;11.43;2.40;;;;;;;10.26;59.92;101139.38;5048524;28;20394;-72
2022/02/15 09:48:14;;;;;;;9.15;1.83;;;;;;;10.88;56.51;101141.16;5048957;28;20044;-76
2022/02/15 09:50:40;;;;;;;8.63;2.20;;;;;;;11.02;53.54;101123.97;5048748;28;20417;-76
2022/02/15 09:53:06;;;;;;;9.73;1.98;;;;;;;10.50;55.82;101139.13;5049084;28;20037;-75
2022/02/15 09:55:32;;;;;;;6.57;1.80;;;;;;;11.01;55.04;101118.78;5048349;28;20048;-75
2022/02/15 09:57:58;;;;;;;10.63;2.03;;;;;;;12.31;51.44;101102.59;5046732;28;20036;-74
2022/02/15 10:00:24;;;;;;;14.38;2.30;;;;;;;13.70;48.73;101087.44;5046754;28;20457;-74
2022/02/15 10:02:49;;;;;;;13.10;2.40;;;;;;;14.16;45.14;101092.63;5050286;28;20107;-73
2022/02/15 10:05:17;;;;;;;4.82;1.55;;;;;;;13.09;46.77;101086.25;5051266;28;20024;-74
2022/02/15 10:07:47;;;;;;;8.88;2.17;;;;;;;12.37;48.50;101086.00;5050619;28;20072;-73
2022/02/15 10:10:14;;;;;;;10.75;2.05;;;;;;;11.18;51.79;101095.97;5051346;28;20039;-73
2022/02/15 10:12:39;;;;;;;6.38;1.60;;;;;;;10.76;52.86;101096.94;5050527;28;20453;-74
2022/02/15 10:15:10;;;;;;;12.65;1.98;;;;;;;10.10;54.03;101086.66;5051273;28;20140;-74
2022/02/15 10:17:38;;;;;;;14.68;2.20;;;;;;;10.12;56.94;101096.19;5050781;28;20087;-74
2022/02/15 10:20:04;;;;;;;5.57;1.73;;;;;;;10.79;56.21;101087.88;5051074;28;20389;-74
2022/02/15 10:22:36;;;;;;;8.27;2.35;;;;;;;12.60;51.90;101099.00;5049186;28;20382;-74
2022/02/15 10:25:02;;;;;;;10.05;1.63;;;;;;;13.18;48.48;101092.53;5051495;28;20076;-75
2022/02/15 10:27:31;;;;;;;7.43;2.08;;;;;;;13.78;47.36;101083.13;5050566;28;20120;-74
2022/02/15 10:30:03;;;;;;;8.68;2.15;;;;;;;13.08;49.29;101100.63;5050738;28;20040;-75
2022/02/15 10:32:29;;;;;;;10.90;1.88;;;;;;;11.77;53.01;101087.06;5051084;28;20036;-73
2022/02/15 10:34:58;;;;;;;5.68;1.83;;;;;;;11.75;55.06;101094.34;5050530;28;20045;-73
2022/02/15 10:37:29;;;;;;;9.88;1.73;;;;;;;11.46;54.99;101097.84;5051346;28;20112;-74
2022/02/15 10:39:58;;;;;;;6.25;1.67;;;;;;;11.70;54.69;101103.75;5050446;28;20447;-74
2022/02/15 10:42:28;;;;;;;8.25;2.20;;;;;;;12.63;51.53;101107.56;5051180;28;20025;-74
2022/02/15 10:44:59;;;;;;;11.45;2.35;;;;;;;12.49;53.04;101103.53;5049445;28;20033;-73
2022/02/15 10:47:31;;;;;;;14.50;2.22;;;;;;;12.69;52.79;101108.81;5033700;28;20037;-77
2022/02/15 10:50:03;;;;;;;11.35;2.40;;;;;;;12.82;52.87;101113.81;5028080;28;20049;-75
2022/02/15 10:52:29;;;;;;;8.63;1.83;;;;;;;12.55;52.86;101107.44;5028500;28;20102;-77
2022/02/15 10:54:56;;;;;;;8.52;1.70;;;;;;;12.49;50.96;101108.03;5027987;28;20041;-75
2022/02/15 10:57:23;;;;;;;6.70;2.05;;;;;;;12.38;50.64;101118.88;5028640;28;20049;-76
2022/02/15 10:59:49;;;;;;;6.03;1.75;;;;;;;12.09;50.52;101112.63;5030547;28;20116;-77
2022/02/15 11:02:25;;;;;;;15.63;2.20;;;;;;;11.55;51.64;101098.00;5032444;28;20450;-75
2022/02/15 11:04:51;;;;;;;6.90;1.75;;;;;;;11.47;51.34;101098.69;5031891;28;20032;-74
2022/02/15 11:07:19;;;;;;;7.63;2.03;;;;;;;10.82;53.13;101100.91;5032331;28;20389;-74
2022/02/15 11:10:29;;;;;;;9.48;2.20;;;;;;;10.51;55.27;101109.75;5031315;28;20032;-73
2022/02/15 11:12:56;;;;;;;12.80;2.03;;;;;;;10.30;55.22;101087.59;5031680;28;20037;-75
2022/02/15 11:15:26;;;;;;;11.00;1.92;;;;;;;9.87;57.89;101092.09;5032077;28;20059;-77
2022/02/15 11:17:57;;;;;;;8.20;1.80;;;;;;;9.62;58.39;101075.50;5031554;28;20056;-75
2022/02/15 11:20:29;;;;;;;12.05;1.75;;;;;;;9.47;59.14;101079.44;5032202;28;20394;-77
2022/02/15 11:22:59;;;;;;;7.97;1.73;;;;;;;9.45;60.06;101070.75;5031298;28;20042;-75
2022/02/15 11:25:37;;;;;;;6.53;1.88;;;;;;;9.59;58.90;101074.94;5031850;28;20033;-74